sensor_id;sensor_type;location;lat;lon;timestamp;P1;durP1;ratioP1;P2;durP2;ratioP2
50851;SDS011;43953;45.508;-122.806;2022-08-11T00:00:06;13.10;;;4.50;;
50851;SDS011;43953;45.508;-122.806;2022-08-11T00:00:41;7.95;;;3.80;;
50851;SDS011;43953;45.508;-122.806;2022-08-11T00:01:17;7.40;;;3.88;;
50851;SDS011;43953;45.508;-122.806;2022-08-11T00:01:54;7.30;;;4.18;;
50851;SDS011;43953;45.508;-122.806;2022-08-11T00:02:31;5.85;;;3.55;;
50851;SDS011;43953;45.508;-122.806;2022-08-11T00:03:08;5.78;;;4.18;;
50851;SDS011;43953;45.508;-122.806;2022-08-11T00:03:47;8.63;;;4.30;;
50851;SDS011;43953;45.508;-122.806;2022-08-11T00:04:27;8.38;;;4.25;;
50851;SDS011;43953;45.508;-122.806;2022-08-11T00:05:46;6.32;;;4.25;;
50851;SDS011;43953;45.508;-122.806;2022-08-11T00:06:31;5.90;;;4.10;;
50851;SDS011;43953;45.508;-122.806;2022-08-11T00:07:06;4.85;;;3.70;;
50851;SDS011;43953;45.508;-122.806;2022-08-11T00:07:57;6.70;;;4.18;;
50851;SDS011;43953;45.508;-122.806;2022-08-11T00:08:30;6.28;;;4.30;;
50851;SDS011;43953;45.508;-122.806;2022-08-11T00:09:04;6.68;;;4.05;;
50851;SDS011;43953;45.508;-122.806;2022-08-11T00:09:38;5.70;;;3.75;;
50851;SDS011;43953;45.508;-122.806;2022-08-11T00:10:13;8.77;;;4.30;;
50851;SDS011;43953;45.508;-122.806;2022-08-11T00:10:52;4.97;;;3.63;;
50851;SDS011;43953;45.508;-122.806;2022-08-11T00:11:39;7.20;;;4.38;;
50851;SDS011;43953;45.508;-122.806;2022-08-11T00:12:24;10.48;;;4.13;;
50851;SDS011;43953;45.508;-122.806;2022-08-11T00:13:01;9.07;;;4.32;;
50851;SDS011;43953;45.508;-122.806;2022-08-11T00:13:39;6.90;;;3.90;;
50851;SDS011;43953;45.508;-122.806;2022-08-11T00:14:56;5.85;;;3.80;;
50851;SDS011;43953;45.508;-122.806;2022-08-11T00:15:40;8.70;;;3.90;;
50851;SDS011;43953;45.508;-122.806;2022-08-11T00:16:19;10.90;;;4.50;;
50851;SDS011;43953;45.508;-122.806;2022-08-11T00:17:30;9.90;;;4.63;;
50851;SDS011;43953;45.508;-122.806;2022-08-11T00:18:04;10.75;;;4.35;;
50851;SDS011;43953;45.508;-122.806;2022-08-11T00:18:40;7.82;;;4.10;;
50851;SDS011;43953;45.508;-122.806;2022-08-11T00:19:18;8.70;;;4.60;;
50851;SDS011;43953;45.508;-122.806;2022-08-11T00:19:53;7.72;;;4.22;;
50851;SDS011;43953;45.508;-122.806;2022-08-11T00:20:41;8.15;;;4.07;;
50851;SDS011;43953;45.508;-122.806;2022-08-11T00:21:15;9.50;;;4.28;;
50851;SDS011;43953;45.508;-122.806;2022-08-11T00:21:49;6.85;;;3.92;;
50851;SDS011;43953;45.508;-122.806;2022-08-11T00:22:22;6.90;;;4.05;;
50851;SDS011;43953;45.508;-122.806;2022-08-11T00:22:58;9.93;;;3.97;;
50851;SDS011;43953;45.508;-122.806;2022-08-11T00:24:00;8.50;;;4.03;;
50851;SDS011;43953;45.508;-122.806;2022-08-11T00:24:32;7.93;;;4.00;;
50851;SDS011;43953;45.508;-122.806;2022-08-11T00:25:13;5.60;;;4.20;;
50851;SDS011;43953;45.508;-122.806;2022-08-11T00:25:48;6.88;;;3.95;;
50851;SDS011;43953;45.508;-122.806;2022-08-11T00:26:25;7.75;;;4.28;;
50851;SDS011;43953;45.508;-122.806;2022-08-11T00:26:58;7.10;;;4.07;;
50851;SDS011;43953;45.508;-122.806;2022-08-11T00:27:33;6.05;;;4.10;;
50851;SDS011;43953;45.508;-122.806;2022-08-11T00:28:22;7.47;;;4.03;;
50851;SDS011;43953;45.508;-122.806;2022-08-11T00:29:06;5.32;;;4.00;;
50851;SDS011;43953;45.508;-122.806;2022-08-11T00:29:39;8.52;;;4.05;;
50851;SDS011;43953;45.508;-122.806;2022-08-11T00:30:11;5.40;;;4.18;;
50851;SDS011;43953;45.508;-122.806;2022-08-11T00:30:44;4.55;;;3.85;;
50851;SDS011;43953;45.508;-122.806;2022-08-11T00:31:50;5.75;;;4.00;;
50851;SDS011;43953;45.508;-122.806;2022-08-11T00:32:15;9.52;;;4.07;;
50851;SDS011;43953;45.508;-122.806;2022-08-11T00:32:54;12.13;;;4.20;;
50851;SDS011;43953;45.508;-122.806;2022-08-11T00:34:10;10.43;;;4.10;;
50851;SDS011;43953;45.508;-122.806;2022-08-11T00:34:43;8.02;;;3.97;;
50851;SDS011;43953;45.508;-122.806;2022-08-11T00:35:18;7.35;;;3.90;;
50851;SDS011;43953;45.508;-122.806;2022-08-11T00:35:57;6.60;;;3.90;;
50851;SDS011;43953;45.508;-122.806;2022-08-11T00:36:38;7.32;;;4.10;;
50851;SDS011;43953;45.508;-122.806;2022-08-11T00:37:17;11.43;;;3.85;;
50851;SDS011;43953;45.508;-122.806;2022-08-11T00:37:52;8.07;;;4.18;;
50851;SDS011;43953;45.508;-122.806;2022-08-11T00:38:28;9.98;;;4.00;;
50851;SDS011;43953;45.508;-122.806;2022-08-11T00:39:03;8.20;;;3.78;;
50851;SDS011;43953;45.508;-122.806;2022-08-11T00:39:43;6.03;;;3.47;;
50851;SDS011;43953;45.508;-122.806;2022-08-11T00:40:22;6.68;;;4.03;;
50851;SDS011;43953;45.508;-122.806;2022-08-11T00:45:08;7.03;;;3.97;;
50851;SDS011;43953;45.508;-122.806;2022-08-11T00:46:11;5.85;;;3.67;;
50851;SDS011;43953;45.508;-122.806;2022-08-11T00:48:24;5.90;;;4.03;;
50851;SDS011;43953;45.508;-122.806;2022-08-11T00:51:14;7.53;;;3.90;;
50851;SDS011;43953;45.508;-122.806;2022-08-11T00:54:07;4.97;;;3.80;;
50851;SDS011;43953;45.508;-122.806;2022-08-11T00:58:48;4.70;;;3.60;;
50851;SDS011;43953;45.508;-122.806;2022-08-11T01:06:37;5.10;;;3.63;;
50851;SDS011;43953;45.508;-122.806;2022-08-11T01:07:41;6.47;;;4.15;;
50851;SDS011;43953;45.508;-122.806;2022-08-11T01:09:43;3.65;;;3.33;;
50851;SDS011;43953;45.508;-122.806;2022-08-11T01:10:47;4.63;;;3.67;;
50851;SDS011;43953;45.508;-122.806;2022-08-11T01:11:43;4.00;;;3.70;;
50851;SDS011;43953;45.508;-122.806;2022-08-11T01:15:05;4.00;;;3.60;;
50851;SDS011;43953;45.508;-122.806;2022-08-11T01:15:58;3.55;;;3.10;;
50851;SDS011;43953;45.508;-122.806;2022-08-11T01:24:49;3.67;;;3.35;;
50851;SDS011;43953;45.508;-122.806;2022-08-11T01:36:46;4.63;;;3.53;;
50851;SDS011;43953;45.508;-122.806;2022-08-11T01:39:34;4.10;;;3.45;;
50851;SDS011;43953;45.508;-122.806;2022-08-11T01:46:15;5.10;;;3.10;;
50851;SDS011;43953;45.508;-122.806;2022-08-11T01:47:16;4.38;;;2.95;;
50851;SDS011;43953;45.508;-122.806;2022-08-11T01:49:33;4.43;;;2.92;;
50851;SDS011;43953;45.508;-122.806;2022-08-11T01:51:37;3.10;;;2.90;;
50851;SDS011;43953;45.508;-122.806;2022-08-11T01:54:02;4.72;;;3.15;;
50851;SDS011;43953;45.508;-122.806;2022-08-11T01:55:24;4.03;;;3.45;;
50851;SDS011;43953;45.508;-122.806;2022-08-11T01:56:20;4.25;;;3.03;;
50851;SDS011;43953;45.508;-122.806;2022-08-11T01:58:04;5.72;;;3.50;;
50851;SDS011;43953;45.508;-122.806;2022-08-11T01:59:46;3.33;;;2.90;;
50851;SDS011;43953;45.508;-122.806;2022-08-11T02:00:23;3.22;;;2.90;;
50851;SDS011;43953;45.508;-122.806;2022-08-11T02:02:30;3.28;;;2.97;;
50851;SDS011;43953;45.508;-122.806;2022-08-11T02:03:35;3.22;;;2.70;;
50851;SDS011;43953;45.508;-122.806;2022-08-11T02:04:55;4.07;;;2.97;;
50851;SDS011;43953;45.508;-122.806;2022-08-11T02:06:36;3.92;;;3.00;;
50851;SDS011;43953;45.508;-122.806;2022-08-11T02:07:35;4.05;;;3.00;;
50851;SDS011;43953;45.508;-122.806;2022-08-11T02:12:00;3.97;;;2.78;;
50851;SDS011;43953;45.508;-122.806;2022-08-11T02:12:45;3.40;;;2.80;;
50851;SDS011;43953;45.508;-122.806;2022-08-11T02:14:28;3.28;;;2.58;;
50851;SDS011;43953;45.508;-122.806;2022-08-11T02:18:54;4.90;;;2.75;;
50851;SDS011;43953;45.508;-122.806;2022-08-11T02:20:00;2.60;;;2.40;;
50851;SDS011;43953;45.508;-122.806;2022-08-11T02:20:59;4.65;;;2.75;;
50851;SDS011;43953;45.508;-122.806;2022-08-11T02:22:05;4.63;;;2.83;;
50851;SDS011;43953;45.508;-122.806;2022-08-11T02:23:16;4.32;;;3.03;;
50851;SDS011;43953;45.508;-122.806;2022-08-11T02:25:08;3.90;;;3.47;;
50851;SDS011;43953;45.508;-122.806;2022-08-11T02:26:05;4.32;;;3.38;;
50851;SDS011;43953;45.508;-122.806;2022-08-11T02:26:48;5.93;;;3.72;;
50851;SDS011;43953;45.508;-122.806;2022-08-11T02:27:37;4.88;;;3.42;;
50851;SDS011;43953;45.508;-122.806;2022-08-11T02:29:33;3.85;;;3.45;;
50851;SDS011;43953;45.508;-122.806;2022-08-11T02:30:23;4.72;;;3.70;;
50851;SDS011;43953;45.508;-122.806;2022-08-11T02:31:11;4.70;;;3.42;;
50851;SDS011;43953;45.508;-122.806;2022-08-11T02:32:24;3.55;;;3.25;;
50851;SDS011;43953;45.508;-122.806;2022-08-11T02:33:23;4.40;;;3.17;;
50851;SDS011;43953;45.508;-122.806;2022-08-11T02:34:10;3.10;;;2.80;;
50851;SDS011;43953;45.508;-122.806;2022-08-11T02:35:31;3.42;;;3.03;;
50851;SDS011;43953;45.508;-122.806;2022-08-11T02:36:41;3.28;;;2.97;;
50851;SDS011;43953;45.508;-122.806;2022-08-11T02:37:24;3.10;;;2.80;;
50851;SDS011;43953;45.508;-122.806;2022-08-11T02:38:49;4.40;;;4.00;;
50851;SDS011;43953;45.508;-122.806;2022-08-11T02:39:33;4.13;;;3.47;;
50851;SDS011;43953;45.508;-122.806;2022-08-11T02:44:50;3.95;;;3.40;;
50851;SDS011;43953;45.508;-122.806;2022-08-11T02:46:17;3.40;;;3.10;;
50851;SDS011;43953;45.508;-122.806;2022-08-11T02:46:55;2.88;;;2.60;;
50851;SDS011;43953;45.508;-122.806;2022-08-11T02:48:03;3.17;;;2.88;;
50851;SDS011;43953;45.508;-122.806;2022-08-11T02:49:35;3.15;;;2.85;;
50851;SDS011;43953;45.508;-122.806;2022-08-11T02:50:24;3.80;;;3.17;;
50851;SDS011;43953;45.508;-122.806;2022-08-11T02:52:02;4.65;;;4.07;;
50851;SDS011;43953;45.508;-122.806;2022-08-11T02:52:43;4.32;;;3.80;;
50851;SDS011;43953;45.508;-122.806;2022-08-11T02:55:09;3.70;;;3.30;;
50851;SDS011;43953;45.508;-122.806;2022-08-11T02:56:47;3.97;;;3.35;;
50851;SDS011;43953;45.508;-122.806;2022-08-11T02:57:39;3.45;;;3.15;;
50851;SDS011;43953;45.508;-122.806;2022-08-11T02:58:27;3.97;;;3.40;;
50851;SDS011;43953;45.508;-122.806;2022-08-11T03:00:12;4.07;;;3.30;;
50851;SDS011;43953;45.508;-122.806;2022-08-11T03:00:48;4.57;;;2.95;;
50851;SDS011;43953;45.508;-122.806;2022-08-11T03:01:36;4.93;;;3.25;;
50851;SDS011;43953;45.508;-122.806;2022-08-11T03:03:24;2.92;;;2.72;;
50851;SDS011;43953;45.508;-122.806;2022-08-11T03:04:09;3.05;;;2.78;;
50851;SDS011;43953;45.508;-122.806;2022-08-11T03:06:48;3.05;;;2.75;;
50851;SDS011;43953;45.508;-122.806;2022-08-11T03:09:29;2.80;;;2.60;;
50851;SDS011;43953;45.508;-122.806;2022-08-11T03:12:05;3.90;;;3.10;;
50851;SDS011;43953;45.508;-122.806;2022-08-11T03:13:03;3.75;;;2.88;;
50851;SDS011;43953;45.508;-122.806;2022-08-11T03:14:24;3.35;;;2.60;;
50851;SDS011;43953;45.508;-122.806;2022-08-11T03:15:21;3.42;;;3.13;;
50851;SDS011;43953;45.508;-122.806;2022-08-11T03:16:31;3.08;;;2.67;;
50851;SDS011;43953;45.508;-122.806;2022-08-11T03:19:29;2.63;;;2.42;;
50851;SDS011;43953;45.508;-122.806;2022-08-11T03:20:19;3.25;;;2.80;;
50851;SDS011;43953;45.508;-122.806;2022-08-11T03:21:11;3.03;;;2.42;;
50851;SDS011;43953;45.508;-122.806;2022-08-11T03:22:52;4.47;;;2.85;;
50851;SDS011;43953;45.508;-122.806;2022-08-11T03:24:39;2.90;;;2.70;;
50851;SDS011;43953;45.508;-122.806;2022-08-11T03:25:30;3.35;;;2.53;;
50851;SDS011;43953;45.508;-122.806;2022-08-11T03:26:14;3.17;;;2.58;;
50851;SDS011;43953;45.508;-122.806;2022-08-11T03:27:49;2.90;;;2.70;;
50851;SDS011;43953;45.508;-122.806;2022-08-11T03:30:18;2.95;;;2.70;;
50851;SDS011;43953;45.508;-122.806;2022-08-11T03:31:15;2.40;;;2.20;;
50851;SDS011;43953;45.508;-122.806;2022-08-11T03:32:01;3.75;;;2.60;;
50851;SDS011;43953;45.508;-122.806;2022-08-11T03:34:08;2.90;;;2.65;;
50851;SDS011;43953;45.508;-122.806;2022-08-11T03:34:45;2.60;;;2.40;;
50851;SDS011;43953;45.508;-122.806;2022-08-11T03:35:21;3.90;;;2.75;;
50851;SDS011;43953;45.508;-122.806;2022-08-11T03:38:14;2.60;;;2.40;;
50851;SDS011;43953;45.508;-122.806;2022-08-11T03:45:56;4.60;;;2.75;;
50851;SDS011;43953;45.508;-122.806;2022-08-11T03:54:42;3.15;;;2.80;;
50851;SDS011;43953;45.508;-122.806;2022-08-11T03:57:20;4.28;;;3.08;;
50851;SDS011;43953;45.508;-122.806;2022-08-11T03:58:31;4.20;;;3.17;;
50851;SDS011;43953;45.508;-122.806;2022-08-11T04:04:21;4.40;;;3.33;;
50851;SDS011;43953;45.508;-122.806;2022-08-11T04:11:50;4.10;;;3.70;;
50851;SDS011;43953;45.508;-122.806;2022-08-11T04:16:42;5.05;;;3.55;;
50851;SDS011;43953;45.508;-122.806;2022-08-11T04:19:55;4.95;;;3.58;;
50851;SDS011;43953;45.508;-122.806;2022-08-11T04:23:10;4.40;;;3.40;;
50851;SDS011;43953;45.508;-122.806;2022-08-11T04:33:02;4.25;;;3.50;;
50851;SDS011;43953;45.508;-122.806;2022-08-11T04:35:51;5.15;;;3.65;;
50851;SDS011;43953;45.508;-122.806;2022-08-11T04:38:04;4.30;;;3.40;;
50851;SDS011;43953;45.508;-122.806;2022-08-11T04:41:50;4.82;;;3.20;;
50851;SDS011;43953;45.508;-122.806;2022-08-11T04:46:11;5.32;;;3.70;;
50851;SDS011;43953;45.508;-122.806;2022-08-11T04:49:54;3.75;;;3.38;;
50851;SDS011;43953;45.508;-122.806;2022-08-11T04:52:36;3.50;;;2.90;;
50851;SDS011;43953;45.508;-122.806;2022-08-11T04:56:50;5.10;;;3.28;;
50851;SDS011;43953;45.508;-122.806;2022-08-11T04:58:08;3.25;;;2.95;;
50851;SDS011;43953;45.508;-122.806;2022-08-11T05:06:55;3.75;;;2.92;;
50851;SDS011;43953;45.508;-122.806;2022-08-11T05:13:03;3.28;;;2.97;;
50851;SDS011;43953;45.508;-122.806;2022-08-11T05:13:51;3.00;;;2.70;;
50851;SDS011;43953;45.508;-122.806;2022-08-11T05:15:00;4.35;;;3.10;;
50851;SDS011;43953;45.508;-122.806;2022-08-11T05:15:53;3.65;;;3.22;;
50851;SDS011;43953;45.508;-122.806;2022-08-11T05:16:53;3.17;;;2.88;;
50851;SDS011;43953;45.508;-122.806;2022-08-11T05:17:57;4.82;;;3.15;;
50851;SDS011;43953;45.508;-122.806;2022-08-11T05:18:54;3.75;;;2.97;;
50851;SDS011;43953;45.508;-122.806;2022-08-11T05:19:46;4.13;;;2.92;;
50851;SDS011;43953;45.508;-122.806;2022-08-11T05:20:39;3.15;;;2.60;;
50851;SDS011;43953;45.508;-122.806;2022-08-11T05:21:35;3.58;;;2.90;;
50851;SDS011;43953;45.508;-122.806;2022-08-11T05:22:28;3.03;;;2.72;;
50851;SDS011;43953;45.508;-122.806;2022-08-11T05:23:19;4.45;;;3.33;;
50851;SDS011;43953;45.508;-122.806;2022-08-11T05:24:25;3.30;;;3.00;;
50851;SDS011;43953;45.508;-122.806;2022-08-11T05:25:31;3.30;;;2.92;;
50851;SDS011;43953;45.508;-122.806;2022-08-11T05:26:22;3.33;;;3.03;;
50851;SDS011;43953;45.508;-122.806;2022-08-11T05:27:13;3.92;;;2.80;;
50851;SDS011;43953;45.508;-122.806;2022-08-11T05:29:02;3.17;;;2.72;;
50851;SDS011;43953;45.508;-122.806;2022-08-11T05:30:12;4.63;;;2.92;;
50851;SDS011;43953;45.508;-122.806;2022-08-11T05:31:09;4.55;;;3.03;;
50851;SDS011;43953;45.508;-122.806;2022-08-11T05:32:02;3.72;;;2.80;;
50851;SDS011;43953;45.508;-122.806;2022-08-11T05:32:57;3.08;;;2.85;;
50851;SDS011;43953;45.508;-122.806;2022-08-11T05:34:11;3.88;;;2.83;;
50851;SDS011;43953;45.508;-122.806;2022-08-11T05:35:08;3.05;;;2.78;;
50851;SDS011;43953;45.508;-122.806;2022-08-11T05:35:45;4.82;;;3.00;;
50851;SDS011;43953;45.508;-122.806;2022-08-11T05:37:55;3.83;;;3.00;;
50851;SDS011;43953;45.508;-122.806;2022-08-11T05:38:56;3.83;;;3.03;;
50851;SDS011;43953;45.508;-122.806;2022-08-11T05:39:49;3.90;;;2.78;;
50851;SDS011;43953;45.508;-122.806;2022-08-11T05:40:46;3.17;;;2.88;;
50851;SDS011;43953;45.508;-122.806;2022-08-11T05:41:37;2.67;;;2.47;;
50851;SDS011;43953;45.508;-122.806;2022-08-11T05:42:30;2.60;;;2.40;;
50851;SDS011;43953;45.508;-122.806;2022-08-11T05:43:21;3.95;;;3.20;;
50851;SDS011;43953;45.508;-122.806;2022-08-11T05:44:17;3.53;;;2.97;;
50851;SDS011;43953;45.508;-122.806;2022-08-11T05:45:13;3.13;;;2.75;;
50851;SDS011;43953;45.508;-122.806;2022-08-11T05:46:05;2.97;;;2.72;;
50851;SDS011;43953;45.508;-122.806;2022-08-11T05:46:55;3.33;;;3.03;;
50851;SDS011;43953;45.508;-122.806;2022-08-11T05:47:49;2.97;;;2.67;;
50851;SDS011;43953;45.508;-122.806;2022-08-11T05:48:40;4.03;;;3.15;;
50851;SDS011;43953;45.508;-122.806;2022-08-11T05:49:33;4.38;;;3.28;;
50851;SDS011;43953;45.508;-122.806;2022-08-11T05:50:23;5.30;;;3.00;;
50851;SDS011;43953;45.508;-122.806;2022-08-11T05:51:14;4.25;;;3.00;;
50851;SDS011;43953;45.508;-122.806;2022-08-11T05:52:05;2.78;;;2.50;;
50851;SDS011;43953;45.508;-122.806;2022-08-11T05:52:55;6.35;;;3.20;;
50851;SDS011;43953;45.508;-122.806;2022-08-11T05:53:50;7.38;;;4.25;;
50851;SDS011;43953;45.508;-122.806;2022-08-11T05:54:42;7.00;;;4.78;;
50851;SDS011;43953;45.508;-122.806;2022-08-11T05:55:35;6.13;;;4.30;;
50851;SDS011;43953;45.508;-122.806;2022-08-11T05:56:32;6.25;;;4.90;;
50851;SDS011;43953;45.508;-122.806;2022-08-11T05:57:18;6.40;;;4.40;;
50851;SDS011;43953;45.508;-122.806;2022-08-11T05:57:55;5.57;;;4.00;;
50851;SDS011;43953;45.508;-122.806;2022-08-11T05:58:34;5.85;;;4.22;;
50851;SDS011;43953;45.508;-122.806;2022-08-11T05:59:13;4.53;;;3.85;;
50851;SDS011;43953;45.508;-122.806;2022-08-11T05:59:49;4.15;;;3.40;;
50851;SDS011;43953;45.508;-122.806;2022-08-11T06:00:29;5.35;;;3.72;;
50851;SDS011;43953;45.508;-122.806;2022-08-11T06:01:02;3.75;;;3.45;;
50851;SDS011;43953;45.508;-122.806;2022-08-11T06:01:34;4.47;;;3.50;;
50851;SDS011;43953;45.508;-122.806;2022-08-11T06:02:06;4.13;;;3.50;;
50851;SDS011;43953;45.508;-122.806;2022-08-11T06:02:40;3.35;;;3.05;;
50851;SDS011;43953;45.508;-122.806;2022-08-11T06:03:19;3.63;;;3.13;;
50851;SDS011;43953;45.508;-122.806;2022-08-11T06:03:56;2.92;;;2.72;;
50851;SDS011;43953;45.508;-122.806;2022-08-11T06:04:45;3.30;;;2.85;;
50851;SDS011;43953;45.508;-122.806;2022-08-11T06:05:29;3.15;;;2.78;;
50851;SDS011;43953;45.508;-122.806;2022-08-11T06:06:07;3.13;;;2.83;;
50851;SDS011;43953;45.508;-122.806;2022-08-11T06:06:49;6.35;;;2.88;;
50851;SDS011;43953;45.508;-122.806;2022-08-11T06:07:26;5.32;;;3.00;;
50851;SDS011;43953;45.508;-122.806;2022-08-11T06:07:59;3.20;;;2.90;;
50851;SDS011;43953;45.508;-122.806;2022-08-11T06:08:32;4.15;;;2.92;;
50851;SDS011;43953;45.508;-122.806;2022-08-11T06:09:08;3.42;;;2.42;;
50851;SDS011;43953;45.508;-122.806;2022-08-11T06:09:47;3.22;;;2.88;;
50851;SDS011;43953;45.508;-122.806;2022-08-11T06:10:31;3.13;;;2.83;;
50851;SDS011;43953;45.508;-122.806;2022-08-11T06:11:06;3.42;;;3.13;;
50851;SDS011;43953;45.508;-122.806;2022-08-11T06:11:38;4.03;;;3.00;;
50851;SDS011;43953;45.508;-122.806;2022-08-11T06:12:16;3.88;;;3.00;;
50851;SDS011;43953;45.508;-122.806;2022-08-11T06:12:50;3.67;;;2.72;;
50851;SDS011;43953;45.508;-122.806;2022-08-11T06:13:25;3.08;;;2.78;;
50851;SDS011;43953;45.508;-122.806;2022-08-11T06:13:58;3.47;;;2.83;;
50851;SDS011;43953;45.508;-122.806;2022-08-11T06:14:34;3.40;;;2.90;;
50851;SDS011;43953;45.508;-122.806;2022-08-11T06:15:13;4.05;;;2.80;;
50851;SDS011;43953;45.508;-122.806;2022-08-11T06:15:48;2.85;;;2.60;;
50851;SDS011;43953;45.508;-122.806;2022-08-11T06:16:24;2.90;;;2.70;;
50851;SDS011;43953;45.508;-122.806;2022-08-11T06:16:58;4.97;;;2.95;;
50851;SDS011;43953;45.508;-122.806;2022-08-11T06:17:34;3.28;;;2.85;;
50851;SDS011;43953;45.508;-122.806;2022-08-11T06:18:15;3.20;;;2.90;;
50851;SDS011;43953;45.508;-122.806;2022-08-11T06:18:48;3.72;;;2.80;;
50851;SDS011;43953;45.508;-122.806;2022-08-11T06:19:21;3.88;;;3.10;;
50851;SDS011;43953;45.508;-122.806;2022-08-11T06:20:04;3.40;;;3.10;;
50851;SDS011;43953;45.508;-122.806;2022-08-11T06:20:46;3.85;;;3.22;;
50851;SDS011;43953;45.508;-122.806;2022-08-11T06:21:19;3.67;;;3.10;;
50851;SDS011;43953;45.508;-122.806;2022-08-11T06:21:52;3.08;;;2.78;;
50851;SDS011;43953;45.508;-122.806;2022-08-11T06:22:24;3.90;;;3.15;;
50851;SDS011;43953;45.508;-122.806;2022-08-11T06:23:03;3.50;;;2.92;;
50851;SDS011;43953;45.508;-122.806;2022-08-11T06:23:37;3.28;;;2.83;;
50851;SDS011;43953;45.508;-122.806;2022-08-11T06:24:12;3.15;;;2.85;;
50851;SDS011;43953;45.508;-122.806;2022-08-11T06:24:50;3.20;;;2.90;;
50851;SDS011;43953;45.508;-122.806;2022-08-11T06:25:29;3.35;;;2.83;;
50851;SDS011;43953;45.508;-122.806;2022-08-11T06:26:09;3.03;;;2.70;;
50851;SDS011;43953;45.508;-122.806;2022-08-11T06:26:51;4.60;;;3.10;;
50851;SDS011;43953;45.508;-122.806;2022-08-11T06:27:24;3.92;;;2.92;;
50851;SDS011;43953;45.508;-122.806;2022-08-11T06:27:59;3.72;;;2.90;;
50851;SDS011;43953;45.508;-122.806;2022-08-11T06:28:38;4.28;;;3.10;;
50851;SDS011;43953;45.508;-122.806;2022-08-11T06:29:11;3.70;;;2.90;;
50851;SDS011;43953;45.508;-122.806;2022-08-11T06:29:48;3.92;;;2.88;;
50851;SDS011;43953;45.508;-122.806;2022-08-11T06:30:44;4.50;;;3.28;;
50851;SDS011;43953;45.508;-122.806;2022-08-11T06:31:19;3.13;;;2.83;;
50851;SDS011;43953;45.508;-122.806;2022-08-11T06:31:56;3.45;;;2.80;;
50851;SDS011;43953;45.508;-122.806;2022-08-11T06:32:31;3.67;;;3.22;;
50851;SDS011;43953;45.508;-122.806;2022-08-11T06:33:07;3.83;;;2.72;;
50851;SDS011;43953;45.508;-122.806;2022-08-11T06:33:56;4.75;;;3.25;;
50851;SDS011;43953;45.508;-122.806;2022-08-11T06:36:22;3.88;;;2.90;;
50851;SDS011;43953;45.508;-122.806;2022-08-11T06:41:56;3.60;;;3.28;;
50851;SDS011;43953;45.508;-122.806;2022-08-11T06:42:47;3.85;;;3.10;;
50851;SDS011;43953;45.508;-122.806;2022-08-11T06:43:24;3.90;;;3.17;;
50851;SDS011;43953;45.508;-122.806;2022-08-11T06:46:37;3.65;;;3.33;;
50851;SDS011;43953;45.508;-122.806;2022-08-11T06:47:11;3.88;;;2.80;;
50851;SDS011;43953;45.508;-122.806;2022-08-11T06:47:47;4.40;;;3.00;;
50851;SDS011;43953;45.508;-122.806;2022-08-11T06:48:20;3.35;;;3.05;;
50851;SDS011;43953;45.508;-122.806;2022-08-11T06:48:54;3.80;;;2.88;;
50851;SDS011;43953;45.508;-122.806;2022-08-11T06:49:33;3.70;;;3.40;;
50851;SDS011;43953;45.508;-122.806;2022-08-11T06:50:27;4.05;;;3.00;;
50851;SDS011;43953;45.508;-122.806;2022-08-11T06:51:18;4.07;;;3.13;;
50851;SDS011;43953;45.508;-122.806;2022-08-11T06:51:50;5.97;;;3.47;;
50851;SDS011;43953;45.508;-122.806;2022-08-11T06:52:36;3.90;;;2.95;;
50851;SDS011;43953;45.508;-122.806;2022-08-11T06:53:09;4.68;;;3.58;;
50851;SDS011;43953;45.508;-122.806;2022-08-11T06:54:17;4.05;;;3.10;;
50851;SDS011;43953;45.508;-122.806;2022-08-11T06:54:51;3.78;;;3.38;;
50851;SDS011;43953;45.508;-122.806;2022-08-11T06:55:27;4.00;;;3.50;;
50851;SDS011;43953;45.508;-122.806;2022-08-11T06:56:22;3.78;;;3.10;;
50851;SDS011;43953;45.508;-122.806;2022-08-11T06:57:14;3.75;;;3.15;;
50851;SDS011;43953;45.508;-122.806;2022-08-11T06:58:16;4.20;;;3.25;;
50851;SDS011;43953;45.508;-122.806;2022-08-11T06:59:09;3.22;;;2.88;;
50851;SDS011;43953;45.508;-122.806;2022-08-11T07:00:00;4.05;;;2.85;;
50851;SDS011;43953;45.508;-122.806;2022-08-11T07:00:52;3.50;;;3.20;;
50851;SDS011;43953;45.508;-122.806;2022-08-11T07:02:10;3.30;;;3.00;;
50851;SDS011;43953;45.508;-122.806;2022-08-11T07:02:51;3.53;;;3.22;;
50851;SDS011;43953;45.508;-122.806;2022-08-11T07:03:35;3.20;;;2.60;;
50851;SDS011;43953;45.508;-122.806;2022-08-11T07:04:10;3.85;;;2.90;;
50851;SDS011;43953;45.508;-122.806;2022-08-11T07:04:51;3.63;;;3.05;;
50851;SDS011;43953;45.508;-122.806;2022-08-11T07:06:14;3.20;;;2.90;;
50851;SDS011;43953;45.508;-122.806;2022-08-11T07:07:22;3.35;;;2.95;;
50851;SDS011;43953;45.508;-122.806;2022-08-11T07:12:39;3.72;;;3.28;;
50851;SDS011;43953;45.508;-122.806;2022-08-11T07:13:33;2.83;;;2.60;;
50851;SDS011;43953;45.508;-122.806;2022-08-11T07:14:29;3.67;;;2.90;;
50851;SDS011;43953;45.508;-122.806;2022-08-11T07:15:20;3.20;;;2.90;;
50851;SDS011;43953;45.508;-122.806;2022-08-11T07:16:15;3.45;;;3.15;;
50851;SDS011;43953;45.508;-122.806;2022-08-11T07:16:52;4.13;;;3.28;;
50851;SDS011;43953;45.508;-122.806;2022-08-11T07:17:26;3.72;;;3.33;;
50851;SDS011;43953;45.508;-122.806;2022-08-11T07:18:02;4.40;;;2.97;;
50851;SDS011;43953;45.508;-122.806;2022-08-11T07:19:04;3.78;;;3.20;;
50851;SDS011;43953;45.508;-122.806;2022-08-11T07:19:57;3.95;;;3.17;;
50851;SDS011;43953;45.508;-122.806;2022-08-11T07:20:51;3.22;;;2.92;;
50851;SDS011;43953;45.508;-122.806;2022-08-11T07:21:43;4.07;;;3.30;;
50851;SDS011;43953;45.508;-122.806;2022-08-11T07:22:35;3.92;;;3.30;;
50851;SDS011;43953;45.508;-122.806;2022-08-11T07:23:40;3.45;;;3.10;;
50851;SDS011;43953;45.508;-122.806;2022-08-11T07:24:37;4.07;;;2.97;;
50851;SDS011;43953;45.508;-122.806;2022-08-11T07:25:29;4.45;;;3.28;;
50851;SDS011;43953;45.508;-122.806;2022-08-11T07:26:23;4.68;;;3.05;;
50851;SDS011;43953;45.508;-122.806;2022-08-11T07:27:15;4.03;;;3.20;;
50851;SDS011;43953;45.508;-122.806;2022-08-11T07:28:12;3.63;;;3.08;;
50851;SDS011;43953;45.508;-122.806;2022-08-11T07:29:06;3.30;;;3.00;;
50851;SDS011;43953;45.508;-122.806;2022-08-11T07:29:41;3.67;;;3.17;;
50851;SDS011;43953;45.508;-122.806;2022-08-11T07:30:19;3.85;;;3.03;;
50851;SDS011;43953;45.508;-122.806;2022-08-11T07:30:51;3.47;;;2.97;;
50851;SDS011;43953;45.508;-122.806;2022-08-11T07:31:38;3.60;;;3.30;;
50851;SDS011;43953;45.508;-122.806;2022-08-11T07:32:18;3.20;;;2.88;;
50851;SDS011;43953;45.508;-122.806;2022-08-11T07:32:56;4.10;;;3.67;;
50851;SDS011;43953;45.508;-122.806;2022-08-11T07:33:31;4.22;;;3.42;;
50851;SDS011;43953;45.508;-122.806;2022-08-11T07:34:44;4.38;;;3.60;;
50851;SDS011;43953;45.508;-122.806;2022-08-11T07:35:21;4.10;;;3.30;;
50851;SDS011;43953;45.508;-122.806;2022-08-11T07:36:15;3.35;;;3.05;;
50851;SDS011;43953;45.508;-122.806;2022-08-11T07:36:51;4.68;;;3.58;;
50851;SDS011;43953;45.508;-122.806;2022-08-11T07:37:29;3.70;;;3.13;;
50851;SDS011;43953;45.508;-122.806;2022-08-11T07:38:06;4.68;;;3.42;;
50851;SDS011;43953;45.508;-122.806;2022-08-11T07:38:47;3.22;;;2.92;;
50851;SDS011;43953;45.508;-122.806;2022-08-11T07:39:31;3.40;;;3.03;;
50851;SDS011;43953;45.508;-122.806;2022-08-11T07:40:04;3.50;;;3.20;;
50851;SDS011;43953;45.508;-122.806;2022-08-11T07:40:36;3.88;;;3.22;;